Event Stats: Michigan (MPO)

Last Updated: 2024-02-26 18:43:03

Shows events in the Statmando database that have been held in Michigan and that include an MPO Division, capped at the most recent 1000 events.
Name EventEndDate Tour City FieldSize AvgRating TotalPurse EventRounds Winner WinnerEventRating WinnerCashPerThrow WinnerPrize
February Flex @ Showboat Park 2024-02-24 C St Charles 14 958.6429 275 1 PDGA #280043 1033.0000 2.5000 120
The dow bubble open 2024-02-18 C Midland 5 937.6000 580 2 PDGA #149064 986.5000 1.7308 180
'Round the Outside 2024-02-17 C Shelby Twp 3 945.6667 179 1 PDGA #141699 983.0000 2.3455 129
GRDoD Winter Games 2024 2024-02-17 C BYRON CENTER 7 976.3846 1,268 2 Justin Larson 1014.5000 2.6087 300
Disc Golf Fanatic Pre-Superbowl Tourney 2024-02-11 C Ypsilanti 4 948.1250 402 2 Austen Bates 1020.0000 1.2626 125
Aloft Weekend Flex 2024-02-11 L Traverse City 5 958.6800 0 6 PDGA #64173 1007.1667 0
Willow Wonderland 2024-01-27 C New Boston 1 956.5000 100 2 Matt Clark 956.5000 0.4237 50
Monster Mash 2024-01-07 C Dexter 10 960.1000 1,040 2 Austen Bates 1014.0000 2.2872 215
2023 Pug Life Disc Golf GLOW Sanctioned Singles 2024-01-05 L Milford 18 932.1930 0 9 Derek Ballou 942.8889 0
New Year's Day Flex 2024-01-01 C St Charles 11 958.5455 283 1 Ryan Anderson 1010.0000 2.1000 105
Cassius Benton 2023-12-30 C Northville 5 963.0000 580 2 Austen Bates 1022.5000 1.8557 180
Huron Valley Santa Singles 2023-12-24 L Ypsilanti Charter Twp 9 939.7368 0 8 PDGA #189603 954.8000 0
Last Chance For Points 2023-12-17 C Milford 12 947.1667 960 2 Austen Bates 1015.5000 1.7895 170
StoneCo Late Fall Singles 2023-12-17 L Ottawa Lake 15 927.8857 0 8 PDGA #76816 954.1250 0
Aloft Autumn Singles 2023-12-17 L Traverse City 5 977.1053 0 6 PDGA #64173 1001.8333 0
Christmas at Stony 2023-12-16 C Shelby Twp 10 964.0000 1,060 2 Mike Forton 1012.5000 2.5263 240
Northridge Saturday Sanctioned 2023-12-09 L Plymouth 4 966.8824 0 8 PDGA #70817 983.1250 0
Detroit City Championship 2023-12-09 C Detroit 9 938.1111 600 2 Mike Forton 953.5000 1.7453 185
Holiday Hyzer 2023-12-03 C Dexter 3 953.3333 240 2 Noah Moorehouse 986.0000 0.7619 80
Vienna Late Fall Singles (PRO/AM) 2023-11-28 L Temperance 19 908.5556 0 5 PDGA #76816 926.0000 0
Stone Cold 2023-11-26 C Shelby Twp 4 956.0000 460 2 Noah Moorehouse 990.5000 1.4019 150
3 Birdies in a Row 2023-11-25 C Milford 21 963.8095 2,216 2 Austen Bates 1024.0000 3.2323 320
Turkey & Chains 2023-11-19 C Ypsilanti 2 941.2500 260 2 Derek Ballou 949.0000 1.1927 130
Renaissance City Open 2023-11-18 C Detroit 8 953.4375 802 2 Matt Clark 984.0000 1.6837 165
Kick Out The Yams 2023-11-12 C Lansing 8 938.7500 1,168 2 Noah Moorehouse 997.5000 2.0965 239
2023 Disc Baron Series: Disc Baron Series Finale 2023-11-12 C Byron Center 14 955.0714 1,550 2 Josh Taylor 1014.0000 2.9651 255
Fall Sanctioned League @ Brewer (Golds) 2023-11-11 L Byron Center 7 953.0000 0 5 PDGA #94622 964.0000 0
Fall Sanctioned League @ Brewer (Reds) 2023-11-11 L Byron Center 1 927.0000 0 2 Sancho Valdez 927.0000 0
Stars & Stripes Forever 2023-11-11 C Holly 3 950.1667 228 2 Jason Sosnowski 964.5000 0.7245 71
Hyzernaut Open 2023-11-11 C Detroit 12 945.2917 950 2 Skyler Stoker 1006.5000 2.2979 216
Aloft Autumn Singles 2023-11-05 L Traverse City 6 977.1250 0 7 PDGA #64173 994.2857 0
No Shave November Fundraiser 2023-11-04 C Holt 3 962.0000 204 2 PDGA #136449 1019.5000 0.7191 64
Years Last Hoorah! 2023-11-04 C Midland 4 957.6250 460 2 PDGA #94913 986.0000 1.5000 150
2023 Pug Life Disc Golf Sanctioned Fridays pt4 2023-11-03 L Milford 11 950.2963 0 8 Derek Ballou 947.2857 0
2023 Pug Life Disc Golf Sanctioned Wednesdays pt4 2023-11-01 L Milford 14 944.1622 0 8 PDGA #209040 951.1429 0
Monday Parmelee Singles 2023-10-30 L Lambertville 3 906.8000 0 4 PDGA #34178 864.6667 0
Michigan Pro State Championships - Presented by Discraft 2023-10-29 B Byron Center 32 967.7234 11,802 3 Luke Taylor 1053.0000 6.2808 917
2023 Disc Baron Series: Disc Baron Birthday Bash 2023-10-29 C BELMONT 3 958.1667 360 2 Bradley Levendosky Jr 1024.0000 1.2778 115
Orbit Thursday's League August-October 2023 2023-10-26 L Adrian 3 957.2500 0 10 PDGA #123212 971.2000 0
Aeronautics Fright Flight 2023-10-22 B Leonard 17 966.3125 3,808 2 Austen Bates 1016.0000 5.1441 571
Ichabod Crane Open 2023-10-21 C Laingsburg 6 924.0833 550 2 Zachary Hardham 977.0000 1.3636 135
The Samuel Garfield Cup presented by Discraft 2023-10-21 C Grand Rapids 1 1007.0000 150 2 Justin Larson 1007.0000 0.8824 75
Haunting at the Hills 2023-10-21 C Ypsilanti 1 971.5000 146 2 Derek Ballou 971.5000 0.6887 73
Breaking Aces Shootout 2023-10-15 C North Star 8 951.6250 1,380 2 Ryan Anderson 1013.5000 2.9592 290
Stony Creek Open - Pro & MA1 2023-10-15 B Shelby Twp 14 957.9286 2,934 2 PDGA #141699 995.0000 4.9020 500
Little Dawg Presented by Disc Golf Threads 2023-10-15 C Big Rapids 4 936.0000 112 1 PDGA #174493 950.0000 0.9492 56
Little Dawg Presented by Disc Golf Threads 2023-10-15 C Big Rapids 4 936.0000 112 1 Benjamin Zorn 950.0000 0.9492 56
Michigan State Championship Doubles - Day One 2023-10-14 XB Holt 1 995.5000 842 2 Benjamin Vansumeren 995.5000 4.2100 421
The Goldenrod Championships 2023-10-14 C Davison 2 943.7500 390 2 Derek Evans 963.0000 1.7568 195
Wilddeer Open (CEP Charity - Rated) 2023-10-08 XC Mount Pleasant 9 957.0556 750 2 Josh Taylor 998.0000 1.5196 155
Party at the Ponds 2023-10-08 C Ypsilanti 2 924.2500 280 2 PDGA #209040 931.5000 1.1765 140
StoneCo Fall Singles 2023-10-08 L Ottawa Lake 24 933.4219 0 10 PDGA #76816 950.8889 0
Disc Over Columbus 2023-10-08 C Shelby Twp 2 968.5000 132 2 PDGA #168165 969.0000 0.5156 66
Fall Fling at Broadway Presented by Discraft 2023-10-07 C Three Rivers 4 927.7500 380 2 Zachary Hardham 967.5000 1.0348 119
GRDoD Fall Color Classic 2023 Sponsored by Dynamic Disc 2023-10-07 C Haistings 11 952.8182 1,770 2 Sam Smigiel 1002.5000 3.1250 325
Big Dawg 10 2023-10-07 C Big Rapids 4 984.3750 544 2 PDGA #88215 1010.5000 1.6505 170
Fall In Sanford 2023-10-07 C Sanford 6 928.7500 690 2 PDGA #131327 959.0000 1.4732 165
2023 Northridge Fall Sanctioned Longs 2023-10-05 L Plymouth 18 947.6667 0 6 PDGA #70817 980.0000 0
Vienna Fall Singles (MPO/MA1) 2023-10-03 L Temperance 35 928.4228 0 10 PDGA #76816 970.8000 0
Rivers Edge of Madness sponsored by Great Lakes Disc 2023-10-01 C Holt 11 937.1364 1,240 2 Jared Stoll 1000.5000 2.5926 280
Northern Michigan Championships 2023-10-01 B Traverse City 7 984.4000 2,400 3 Luke Taylor 1034.3333 2.8102 385
1 Round 1 Rating @ Showboat Park 2023-10-01 C Chesaning 13 917.0769 210 1 PDGA #94913 988.0000 2.1277 100
Wild Wild Wickes 2023-09-30 B Saginaw 10 944.9500 2,880 2 Nicholas Gill 1009.0000 6.1856 600
The Washtenaw County Open 2023-09-30 C Ypsilanti 7 973.8571 872 2 Noah Moorehouse 1020.0000 2.1563 207
Fall Time at Fallasburg 2023-09-30 C Lowell 6 951.3636 660 2 Sam Smigiel 1011.5000 1.6122 158
Hump Day Summer Singles 2023-09-27 L Northville 13 953.4000 0 5 PDGA #147590 1000.0000 0
Discraft's Oakland County Championship 2023-09-24 A Milford 38 969.9346 18,999 3 Andrew Marwede 1048.6667 9.2593 1,500
Huron Valley Summer Singles 2023-09-19 L Milford 16 949.6129 0 6 PDGA #197033 963.5000 0
Parmelee summer singles 2023-09-18 L Lambertville 6 920.8824 0 9 PDGA #149472 913.2857 0
Above Par Open 2023-09-17 B Otisville 6 971.3333 2,590 2 Tim Barham 1009.5000 5.7339 625
Annihilation At Addison 2023-09-16 C Leonard 11 952.4545 1,830 2 PDGA #146872 992.5000 2.9464 330
Tough Person Challenge 2023-09-16 C Hastings 12 935.2917 1,392 2 Dan Treece 991.5000 2.2818 251
Hanson Hills Singles League Presented by Aloft 2023-09-14 L Grayling 8 914.6226 0 10 PDGA #67337 986.5000 0
Third Coast Championship - Sponsored by Westside Discs 2023-09-10 B Bridgman 12 940.1429 4,662 3 Nicholas Gill 996.3333 3.2126 559
2023 Burchfield Open 2023-09-09 C Holt 8 929.8125 1,170 2 Joel Coppernoll 978.0000 2.3810 250
Running Into Fall 2023-09-09 C Alma 3 950.5000 220 2 Josh Taylor 1013.5000 0.6796 70
2023 Pug Life Disc Golf Spring Sanctioned Fridays pt3 2023-09-08 L Milford 14 943.6591 0 9 PDGA #140561 978.8000 0
3CC Flex-Start Warm Up - Presented by Momentary Bliss Discs 2023-09-07 C Benton Harbor 2 875.0000 0 1 PDGA #14800 875.0000 0.0000 0
3CC Flex-Start Warm Up - Presented by Momentary Bliss Discs 2023-09-07 C Benton Harbor 2 875.0000 0 1 PDGA #201714 875.0000 0.0000 0
2023 Pug Life Disc Golf Spring Sanctioned Wednesdays pt3 2023-09-06 L Milford 16 950.3556 0 8 PDGA #140561 968.6667 0
This Little Piggy Stayed Home 2023-09-04 C Plymouth 13 952.0000 1,496 2 PDGA #168165 1002.0000 2.6286 276
2023 Beer City Disc Golf Summer Sanctioned League - Grand Rapids Rotary North 2023-09-04 L Belmont 20 932.7763 0 9 Zac Sherman 1008.1250 0
1 Round 1 Rating @ Reed Park 2023-08-30 C North Star 8 944.8750 180 1 PDGA #94913 983.0000 1.5000 75
Traverse Area Singles presented by Cheboygan Brewing 2023-08-29 L Traverse City 8 943.4286 0 6 PDGA #64173 977.6667 0
Wheels Up @ The Runway Pt 2 2023-08-27 C Alma 11 958.0909 1,320 2 Mitchell Kloc 992.0000 2.2072 245
Stony Creek Championships 2023-08-26 B Shelby Twp 9 959.7500 2,090 2 Matt Clark 985.0000 4.1346 430
Team Taylor One Round on Wildwood Fundraiser 2023-08-25 C Mt. Pleasant 7 948.8571 152 1 PDGA #124981 1038.0000 1.9787 93
2023 Northridge summer sanctioned Longs 2023-08-24 L Plymouth 14 936.4375 0 5 Derek Ballou 980.5000 0
Winny Wednesday 2023 Session 2 2023-08-23 L Holland 2 936.8462 0 8 PDGA #69241 965.0000 0
Black Ace Sanctioned Singles Session B 2023-08-23 L Holly 2 1002.5000 0 2 PDGA #136449 990.0000 0
Black Ace Sanctioned Singles Session B 2023-08-23 L Holly 2 1002.5000 0 2 Wendell Zeimet 1015.0000 0
DGPT - Discraft Great Lakes Open 2023-08-20 DGPT Milford 73 1016.7397 257,000 4 Simon Lizotte 1058.5000 65.2174 15,000
Upper Peninsula Open presented by Dunegrass 2023-08-19 C Marquette 3 918.5000 488 2 PDGA #104411 967.0000 1.5300 153
GRDGU Summer Sanctioned League @ Brewer (Golds) 2023-08-17 L Byron Center 33 941.5000 0 10 Joe Kowalski 984.2500 0
GRDGU Summer Sanctioned League @ Brewer (Reds) 2023-08-17 L Byron Center 17 946.8438 0 9 Ryan Bowling 980.8750 0
Flex at Cass Benton 2023-08-16 C Northville 1 1007.0000 30 1 Corey Selig 1007.0000 0.6250 30
1 Round 1 Rating @ McCurdy 2023-08-16 C Corunna 8 937.2500 185 1 PDGA #131327 987.0000 1.7045 75
Shore Acres 2023 League Second Session 2023-08-15 L Holland 3 944.6667 0 9 Zachary Vaughn 974.5556 0
2023 A3Disc Monday Night Sanctioned Singles League 2023-08-14 L Ypsilanti 2 961.0000 0 1 Austen Bates 967.0000 0
Chasing Birdies at Burchfield sponsored by Great Lakes Disc 2023-08-12 C Holt 6 944.0833 820 2 PDGA #122809 970.0000 1.8868 200
Cherry Capital Open 2023-08-12 C Traverse City 3 984.1667 378 2 PDGA #64173 1025.0000 1.2660 119
Motor City Open presented by Discraft 2023-08-12 C Leonard 9 950.9444 1,492 2 PDGA #168165 987.0000 2.6316 300
Flint Town Flyerz Open 2023-08-12 C flint 5 952.8000 660 2 PDGA #142819 988.5000 1.9091 210
Camp Smash Flex 2023-08-11 C Belding 18 930.2778 722 1 PDGA #95745 1002.0000 4.1837 205
Farm To Beach Classic 2023-08-06 C Pentwater 6 928.0000 126 1 Sancho Valdez 985.0000 1.1111 60
Comb Over Classic 2023-08-06 C Orion Twp 8 962.5333 1,160 2 Corey Selig 1016.5000 2.2047 280
Hump Day Summer Singles 2023-08-02 L Ypsilanti 6 957.1111 0 4 PDGA #197033 953.3333 0
Huron Valley Solstice Singles 2023-08-01 L Milford 19 949.7800 0 8 PDGA #116463 982.0000 0
StoneCo Summer Singles 2023-07-30 L Ottawa Lake 29 929.8986 0 9 PDGA #76816 964.3333 0
River City Open presented by Discraft - Pro 2023-07-30 A Byron Center 108 965.9750 74,562 3 Andrew Marwede 1054.0000 18.1259 2,592
Harambe Open 2023-07-29 B Otisville 13 956.4231 3,060 2 Ryan Anderson 1009.0000 4.8165 525
Vienna Summer Singles (MPO/MA1) 2023-07-25 L Temperance 44 922.3972 0 10 PDGA #76816 950.9000 0
DGMT - Black Falcon Presented By Innova Sponsored By Perrin Brewing 2023-07-23 B Kent City 10 964.9000 2,000 2 Ian Hamilton 999.0000 3.5036 480
Discraft's 30th CCR Open fueled by Great Lakes Disc 2023-07-23 A Holt 75 978.1982 66,510 3 Andrew Marwede 1048.0000 17.5649 2,705
Breakfast, Bubbles, and Birdies 2023-07-22 XC Mt pleasant 2 908.0000 70 2 PDGA #26599 908.0000 0.0000 0
Breakfast, Bubbles, and Birdies 2023-07-22 XC Mt pleasant 2 908.0000 70 2 PDGA #70299 0.4070 35
1 Round 1 Rating @ St Charles 2023-07-19 C St Charles 10 933.4000 229 1 Brett Federspiel 1022.0000 2.1591 95
Traverse Area Singles presented by Cheboygan Brewing 2023-07-18 L Traverse City 9 957.4762 0 6 Nick Robertson 1011.2500 0
GatekeeperMedia Flex Start at Rivers Edge 2023-07-18 C holt 4 997.0000 120 1 Jared Stoll 1032.0000 1.2000 60
GatekeeperMedia Flex Start at Rivers Edge 2023-07-18 C holt 4 997.0000 120 1 Wendell Zeimet 1032.0000 1.2000 60
GatekeeperMedia Flex Start at Renegades Trail 2023-07-18 C Holt 5 981.2000 150 1 Austen Bates 1050.0000 1.9000 95
Sunrise Side Open presented by Discraft 2023-07-16 B Alpena 9 984.2222 1,768 2 Andrew Marwede 1068.5000 5.3418 422
West Shore Showdown 2023-07-16 C Ludington 1 945.5000 102 2 Mike Dabkowski 945.5000 0.4857 51
Grayling Open 2023-07-15 C Grayling 4 987.3750 480 2 PDGA #64173 1019.0000 1.5957 150
A Dip In Buck Creek 2023-07-15 C Lyons 12 947.2083 890 2 PDGA #135818 994.5000 0.0000 0
Aeronautics Aviation Adventure 2023-07-15 B Shelby Township 14 958.4231 2,562 2 Matt Clark 1016.5000 5.7188 549
2023 Disc Baron Series: Huck, Heave and Chuck Open 2023-07-15 C Belmont 9 938.5625 730 2 Matt Jackson 1006.5000 2.1809 205
Friday Flex @ Romo 2023-07-14 C Kalamazoo 5 941.8000 140 1 Zachary Hardham 1019.0000 1.8723 88
Triple Axis Lansing League 2023-07-11 L Holt 6 934.3714 0 10 PDGA #121039 974.7000 0
Monday Night Spring 2023 session 2 2023-07-10 L Lambertville 7 928.4667 0 7 PDGA #34178 964.5714 0
Lower Peninsula Open - Presented by Innova 2023-07-09 A Dexter 47 970.7357 21,762 3 Tim Barham 1025.3333 9.5890 1,400
The Midland Open - MPO, FPO, FA1, MA2, FA2, FA3, MA4, FA4 2023-07-09 B Midland 12 946.9583 3,520 2 Brett Federspiel 971.5000 6.1538 640
Firefighters Classic 2023-07-08 C Troy 3 931.5000 548 2 PDGA #22867 936.5000 1.6538 172
West Michigan Open 2023-07-08 C Sparta 19 935.2632 2,524 2 Guthrie Collins 1002.0000 3.8776 380
2023 Pug Life Disc Golf Spring Sanctioned Fridays pt2 2023-07-07 L New Hudson 14 950.9333 0 9 Derek Ballou 954.5714 0
2023 Northridge spring sanctioned Longs 2023-07-06 L Plymouth 35 933.9402 0 10 Derek Ballou 975.3750 0
Hanson Hills Singles League Presented by AloftDG.com 2023-07-06 L Grayling 13 917.5854 0 10 PDGA #67337 1001.8000 0
2023 Pug Life Disc Golf Spring Sanctioned Wednesdays pt2 2023-07-05 L Milford 20 947.7500 0 8 Derek Ballou 965.0000 0
1 Round 1 Rating @ Burt 2023-07-05 C Burt 11 926.7273 230 1 PDGA #55013 996.0000 2.1111 95
Fourth at Fally Flex Presented By Disc Golf Threads 2023-07-04 C Lowell 20 935.3000 720 1 Dan Treece 1037.0000 4.3404 204
Disc Baron Series: Mount Pleasant Open (MPO,FPO,MA50,MA2,MA4,JUNIORS) 2023-07-02 B Mount Pleasant 27 958.1852 4,230 2 Josh Taylor 1007.0000 5.4082 530
Independence Lake Summer Sling 2023-07-02 C Whitmore lake 1 935.5000 134 2 PDGA #87929 935.5000 0.5447 67
Land Whale Open - MPO, MA2, MA4 2023-07-01 B Davison 23 965.2500 3,792 2 PDGA #118358 1027.5000 5.5000 550
247 Years of Freedom 2023-06-29 C Adrian 6 939.5000 84 1 PDGA #123212 1037.0000 1.3256 57
Random Baskets 2023 #1 2023-06-26 L Capac 2 947.2000 0 10 PDGA #157643 971.2000 0
Summer Solstice Showdown by Disc Da U.P. 2023-06-25 C Marquette 3 949.1111 1,257 3 Kennan Johnson 987.3333 2.0123 326
11th Annual Hands to the Sun 2023-06-25 C Oxford 10 948.5500 1,558 2 PDGA #53212 1009.5000 3.2000 320
Road Commissioner Classic - Presented by Innova - MPO & MA1 2023-06-25 B Northville 15 955.9000 2,964 2 Corey Selig 1015.5000 5.5052 534
GRDoD Summer Games 2023 - Pro, MA2, FA Divisions 2023-06-25 C Byron Center 11 949.9545 1,358 2 Nicholas Gill 1016.5000 2.6190 275
Tilley's Open (Saturday) 2023-06-24 B Traverse City 27 960.2222 9,418 2 Nicholas Gill 1014.5000 11.3265 1,110
Friday Flex @ Spring Valley 2023-06-23 C Kalamazoo 4 971.0000 70 1 Zachary Hardham 1007.0000 1.1475 70
2023 Leprechaun Hollows Divisional Invite 2023-06-22 C WEST OLIVE 9 937.1111 0 1 PDGA #82970 972.0000 0.0000 0
2023 Leprechaun Hollows Divisional Invite 2023-06-22 C WEST OLIVE 9 937.1111 0 1 PDGA #255873 972.0000 0.0000 0
Hump Day Solstice Singles 2023-06-21 L Northville 13 944.1500 0 7 PDGA #189603 924.0000 0
Garfield Flex Start 2023-06-21 C Grand Rapids 10 953.8000 281 1 Guthrie Collins 1035.0000 2.3500 94
Garfield Flex Start 2023-06-21 C Grand Rapids 10 953.8000 281 1 Ian Hamilton 1035.0000 2.3500 94
2023 A3Disc Monday Night Sanctioned Singles League 2023-06-19 L Ypsilanti 2 998.3333 0 6 Austen Bates 1016.7500 0
Sometimes Summer Solstice presented by Discraft - MPO, FPO, MA2, MA4, FA, AMM 2023-06-18 C Kalamazoo 22 963.5455 5,950 2 Nicholas Gill 1010.5000 7.9010 798
Summer Solstice Tournament 2023-06-18 B Dexter 10 941.9500 3,040 2 Austen Bates 1005.0000 6.1881 625
Green Lake Open presented by Dunegrass 2023-06-18 B Interlochen 15 974.1379 3,930 2 PDGA #64173 1020.0000 5.7434 649
the Fourth Annual Showboat Showdown 2023-06-18 C Chesaning 15 933.1000 1,772 2 Brenden Tetloff 996.0000 3.4731 323
Vehicle City Open presented by Discraft (MPO, MA2, MA4, MA40,MA60, All womens divisions) 2023-06-18 B flint 12 958.7083 2,230 2 PDGA #136449 990.5000 3.6697 400
wickes 2 round challenge 2023-06-17 C saginaw 6 946.4167 870 2 Ryan Anderson 996.5000 2.1212 210
Winny Wednesday 2023 Session 1 2023-06-14 L Holland 2 939.6667 0 10 PDGA #69241 959.0000 0
Da Old Town Open 2023 2023-06-11 C Negaunee 3 916.0000 172 2 PDGA #43612 954.5000 0.8190 86
Happy Discing Open 2023-06-11 C Big Rapids 6 960.9167 912 2 Nick Robertson 1019.5000 2.1569 220
GRDGU Summer Sanctioned League @ Brewer (Golds) 2023-06-08 L Byron Center 23 939.8197 0 10 Joe Kowalski 964.5714 0
GRDGU Summer Sanctioned League @ Brewer (Reds) 2023-06-08 L Byron Center 15 942.9474 0 10 PDGA #83446 977.0000 0
June Smash Flex Presented By Disc Golf Threads 2023-06-07 C Belding 8 942.1250 137 1 Nicholas Gill 980.0000 1.4490 71
June Smash Flex Presented By Disc Golf Threads 2023-06-07 C Belding 8 942.1250 137 1 PDGA #154183 980.0000 0.0000 0
Traverse Area Singles presented by Cheboygan Brewing 2023-06-06 L Traverse City 13 944.5400 0 10 PDGA #64173 985.0000 0
Shore Acres 2023 League First Session 2023-06-06 L Holland 3 941.5185 0 10 Zachary Vaughn 970.6667 0
Huron Valley Spring Singles 2023-06-06 L Milford 12 959.5200 0 6 PDGA #116463 985.5000 0
Three Day Weekend at SHARA 2023-06-05 L South Haven 2 978.0000 0 3 PDGA #155835 958.5000 0
Hastings Disc Golf Grand Prix presented by Discraft - MPO, FPO, MA2, MA4, FA, AMM 2023-06-04 B Hastings 20 983.8000 5,552 2 Frank Smith 1026.5000 8.0103 777
North Bluff Open presented by Visit Escanaba 2023-06-04 B Gladstone 14 937.0000 4,668 2 Nick Robertson 1014.0000 7.3619 773
Massasauga Open - MPO, FPO, MA2, MA4 2023-06-04 B Dexter 19 950.4324 3,298 2 Cody Sears 1014.5000 5.4000 540
The Freeland Open - MPO, FPO, FA1, MA2, FA2, FA3, MA4, FA4 2023-06-04 B Freeland 8 951.4000 2,360 2 Ziggy Bierekoven 985.5000 4.5455 500
Sleepy in the Sun sponsored by Great Lakes Disc 2023-06-03 C Laingsburg 7 935.2143 980 2 PDGA #52236 964.5000 2.3500 235
Grange Hall Gathering presented by G&M Telecom 2023-06-03 B Holly 14 953.3929 3,432 2 Tim Barham 1016.5000 5.7143 600
The Clash at Cass II 2023-06-03 C Northville 3 963.8333 588 2 PDGA #142819 979.5000 1.7864 184
2023 Disc Baron Series: Smashing Chains Open 2023-06-03 C Belding 15 935.9333 1,620 2 Zac Sherman 997.0000 2.7526 267
Orbit Thursday's League Spring 2023 2023-06-01 L Adrian 4 930.6667 0 10 PDGA #123212 959.3333 0
Team Taylor One Round @ Deerfield Park Fundraiser 2023-06-01 C Mount Pleasant 2 959.5000 70 1 Josh Taylor 1010.0000 1.4894 70
Discraft Presents the Wolf Pack Discs Open 2023 2023-05-29 C Holland 13 961.7308 1,584 2 Patrick Nemmer 1019.0000 3.1522 290
NorthRidge Open - Presented by Innova 2023-05-29 C Plymouth 5 926.0000 604 2 PDGA #146872 951.5000 1.6522 190
AJ Open - FPO, MPO, MP50, MA40, MA60, MA2, MA4, FA1-4 2023-05-28 B Ludington 18 961.6111 3,140 2 Geoff Bennett 1015.5000 5.1648 470
Rain or Shine Clash 2023-05-28 B Otisville 11 952.2273 2,580 2 Brett Federspiel 1003.5000 3.6111 390
May Flowers sponsored by Great Lakes Disc 2023-05-27 C Holt 7 939.4286 950 2 Jacob Turner 1005.5000 2.3469 230
Warming Up Wickes 2023-05-27 B Saginaw 14 956.0385 3,348 2 Tim Barham 1020.0000 6.3830 600
8th Annual Johnson Park Championship presented by Discraft 2023-05-27 C Walker 9 956.5556 1,154 2 PDGA #90656 998.0000 3.1398 292
Big Chuckin' 2023-05-27 C Stanton 6 955.7273 660 2 PDGA #223934 996.5000 1.5700 157
Daywalkers Doubles 2023-05-27 XC Whitmore Lake 1 332 2 Noah Moorehouse 1.8043 166
Lake Arvesta presents: Mucky May Open 2023-05-27 C South Haven 9 962.1250 410 2 Sam Smigiel 1000.5000 1.0294 140
Thursday Flex @ VIRA 2023-05-25 C Brady Township 9 927.7778 235 1 PDGA #144147 965.0000 1.8246 104
1 Round 1 Rating Wickes Pt 2 2023-05-24 C Saginaw 13 915.6923 204 1 PDGA #126625 988.0000 0.0000 0
May Smash Flex 2023-05-24 C Belding 11 939.1818 250 1 PDGA #69426 993.0000 2.0800 104
South Kent County Open - MPO, FPO, MA2, MA4, FA, AMM 2023-05-21 B Byron Center 18 984.6667 5,392 2 Luke Taylor 1051.5000 7.7835 755
St Clair County Open 2023-05-21 C Columbus 10 950.5500 1,330 2 PDGA #87929 992.5000 2.4000 300
StoneCo Spring Singles PRO/AM 2023-05-21 L Ottawa Lake 24 931.7833 0 9 PDGA #76816 954.8750 0
Kingsley Open presented by Buffalo Wild Wings 2023-05-20 C Kingsley 12 963.1667 1,488 2 PDGA #64173 1021.5000 2.8925 269
Welcome to the Jungle 2023-05-20 C Sanford 5 949.4000 730 2 Patrick Nemmer 976.0000 2.1698 230
Vienna Park Open 2023-05-20 C temperance 6 948.5833 682 2 PDGA #87076 981.5000 1.5714 165
Courtland Flex 2023-05-17 C Rockford 3 945.3333 78 1 Bradley Levendosky Jr 973.0000 1.0204 50
Vienna Spring Singles (Pro) 2023-05-16 L Temperance 35 925.0000 0 10 PDGA #34178 946.2000 0
2023 Beer City Disc Golf Spring Sanctioned League - Johnson Park 2023-05-15 L Walker 18 943.0233 0 7 PDGA #90656 1025.7500 0
Michigan Disc Golf Hall of Fame Classic 2023-05-14 A South Haven 33 976.8673 15,759 3 Luke Taylor 1034.6667 6.4645 1,183
DDGA Central Open 2023 2023-05-14 C Dexter 1 962.3333 360 3 Benjamin Zorn 962.3333 0.7101 120
The Patriot - MPO, MA40, MA60, MA3, MA4, FA1-4 2023-05-14 B Otisville 16 959.5938 2,664 2 Nick Robertson 1018.0000 3.7222 402
Kensington Spring Sling 2023-05-14 C Milford 3 941.1667 0 2 PDGA #137019 958.0000 0.0000 0
L.P. Open presented by Discmania 2023-05-14 C Hastings 6 941.1667 756 2 Trevor Balfour 975.5000 1.6667 180
Turf Toe Open 2023-05-13 C Interlochen 8 973.1250 790 2 Nick Robertson 1011.0000 1.3675 160
Tower Open 2023-05-13 C Greenville 16 939.3750 2,290 2 PDGA #65515 992.0000 3.7255 380
Snake Charmer Open 2023-05-13 C Leonard 4 938.1250 440 2 PDGA #146872 991.0000 1.2963 140
Aeronautics Aerial Attack 2023-05-13 C Oxford 3 953.8333 392 2 PDGA #168165 992.0000 1.9029 196
Bald Mt & Stony Creek Open 2023-05-07 B Shelby Township 29 959.3276 4,714 2 Corey Selig 1004.0000 5.1724 600
Noble Appliance Open 2023-05-07 B Belmont 24 970.1250 5,456 2 Andrew Marwede 1049.0000 8.0568 709
Disc Baron Series: Disc Baron Berth Battle 2023-05-07 C Mount Pleasant 8 947.3125 1,000 2 Josh Taylor 1024.0000 2.1809 205
SMASH Bash presented by Discraft 2023-05-06 C Belding 15 962.6667 2,190 2 Dan Treece 997.0000 3.5743 361
Sleeping Bear Open 2023-05-06 C Maple City 4 946.3750 430 2 Nick Robertson 994.5000 1.4565 134
2023 Zambia Disc Golf Fundraiser Series - The Breakers (CEP Charity - Rated) 2023-05-06 XC West Olive 4 923.0000 100 1 Bret Good 959.0000 1.2500 65
2023 Pug Life Disc Golf Spring Sanctioned Fridays 2023-05-05 L New Hudson 13 939.3226 0 8 Derek Ballou 963.4286 0
2023 Pug Life Disc Golf Spring Sanctioned Wednesdays 2023-05-03 L New Hudson 8 948.1364 0 8 Derek Ballou 960.0000 0
Hump Day Spring Singles 2023-05-03 L Ypsilanti 21 936.3077 0 6 Corey Selig 986.7500 0
Monday Night Spring 2023 2023-05-01 L Lambertville 12 929.3889 0 6 PDGA #34178 983.3333 0
Aerodynamic Open 2023-04-30 B Leonard 20 956.0750 4,380 2 Nick Robertson 1010.5000 5.5909 615
Flip City Open (Saturday) 2023-04-29 B Shelby 39 970.4615 5,416 2 Luke Taylor 1030.5000 4.5200 565
Huron Valley Spring Singles 2023-04-25 L New Hudson 28 945.0714 0 8 PDGA #116463 979.5000 0
Kentwood Classic - MPO, FPO, MA2, MA4, FA, AMM 2023-04-23 C Kentwood 14 966.6071 2,042 2 Justin Larson 1006.0000 3.9186 337
1 Round 1 Rating @ Sanford 2023-04-23 C Sanford 14 944.1429 320 1 Ryan Anderson 1024.0000 2.1429 105
2023 Disc Baron Series: Spring Into Disc Golf Open 2023-04-23 C Lowell 10 951.8000 1,160 2 Sam Smigiel 1032.0000 2.4536 238
Throw Down The Dam 2 2023-04-22 C White Cloud 11 943.5000 1,574 2 Josh Taylor 991.5000 2.5586 284
Friday Flex @ Osthemo 2023-04-21 C Kalamazoo 7 954.2857 196 1 Nicholas Gill 1012.0000 1.4902 76
Friday Flex @ Osthemo 2023-04-21 C Kalamazoo 7 954.2857 196 1 Zachary Hardham 1012.0000 1.4902 76
Flower Frenzy - MPO, MA40, MA2, MA4, FA1, FA2, FA3, FA4 2023-04-16 B Ypsilanti 14 961.5714 2,912 2 Austen Bates 1024.5000 4.9485 480
Quinvitational 2023-04-16 C Ludington 11 962.0000 1,366 2 Kyle Williams 1030.0000 2.7143 247
Springtime Open 2023-04-15 B Davison 14 965.4074 2,956 2 Luke Taylor 1013.0000 4.6296 500
Leprechaun Hollows Flex Start Kickoff 2023-04-15 C WEST OLIVE 8 921.2500 0 1 Zachary Vaughn 977.0000 0.0000 0
Leprechaun Hollows Flex Start Kickoff 2023-04-15 C WEST OLIVE 8 921.2500 0 1 PDGA #155835 977.0000 0.0000 0
Spring Fling presented by Provision Financial 2023-04-15 C Leonard 4 950.7500 750 2 David Lewis 955.0000 1.9583 235
GRDoD April Anhyzer 2023 Sponsored by Dynamic Disc 2023-04-15 C Lowell 10 946.5500 1,510 2 Nicholas Gill 1015.0000 2.4046 315
2023 Keyblade Open 2023-04-15 C Adrian 10 932.2000 800 2 PDGA #123212 990.0000 2.0833 200
Victory Park Open - MPO, FPO, MA2, MA4, FA, AMM 2023-04-09 B Albion 38 966.1711 9,140 2 Noah Moorehouse 1018.0000 10.0000 960
A Spring Session at Sessions Lake presented by Discraft 2023-04-08 C Ionia 3 958.3333 438 2 Ian Hamilton 999.0000 1.0873 137
Battle Of Yetisburg Driven by Innova 2023-04-08 C Manton 8 962.8125 760 2 Kyle Williams 1013.0000 1.5816 155
The Sabbath Presented by Innova 2023-04-08 C Milford 2 971.0000 296 2 Corey Selig 1012.0000 1.3962 148
Holla At Your Boy Open 2023-04-08 C Freeland 6 950.5833 870 2 Ryan Anderson 984.0000 2.1875 210
Party at The Lake 2023-04-02 C Whitmore Lake 8 941.6875 1,018 2 PDGA #168165 986.0000 2.4123 275
2023 SPRING THROWDOWN @ STONECO!!! 2023-04-02 C OTTAWA LAKE 5 955.1000 600 2 PDGA #87076 970.5000 1.7273 190
Battle at Hammond presented by Discraft 2023-04-01 C Hastings 12 975.5000 2,044 2 Luke Taylor 1056.0000 4.0889 368
Cadillac Open 2023-04-01 C Cadillac 5 924.4000 540 2 PDGA #108033 994.0000 1.8280 170
Wickes Open 2023-04-01 C Saginaw 15 940.6000 1,860 2 Brett Federspiel 1003.0000 3.1122 305
Muddin at the V' III 2023-04-01 C Temperance 2 933.5000 240 2 Brendan Taylor 969.5000 1.0811 120
Winter Awakening 2 2023-03-25 C Lowell 18 957.2188 2,372 2 Nicholas Gill 1012.0000 3.2019 333
Rust Remover Open 2023-03-25 C Lake Ann 5 951.7000 430 2 PDGA #64173 996.5000 1.4362 135
Discraft presents March Mayhem - MPO, FPO, MA2, MA4, FA, AMM 2023-03-19 B Grand Rapids 14 962.5000 3,664 2 Josh Taylor 1030.0000 7.8452 659
The Windy Lyon Presented by Innova 2023-03-19 C New Hudson 9 941.8889 648 2 Derek Ballou 978.5000 0.0000 0
The Angry Leprechaun 2023-03-18 C Ypsilanti 2 946.5000 288 2 Brandon Johnson 949.0000 1.2414 144
2023 March Mush - MPO,FPO,FA1,MA2,FA2,FA3 2023-03-12 B Laingsburg 26 951.9608 6,174 2 Ryan Anderson 1017.5000 6.9444 750
Belle River Battle 2023-03-12 C Columbus 6 971.8333 792 2 PDGA #168165 994.0000 1.6260 200
March Mudfest 2023-03-11 C Troy 3 942.0000 150 2 PDGA #161410 979.0000 0.0000 0
LIVE @ LAKESHORE!!! 2023-03-11 C YPSILANTI 6 935.8333 760 2 Matt Clark 980.0000 1.7143 180
Oh my Gosh-temo - MPO, FPO, MA2, MA4, FA, AMM 2023-03-05 B Kalamazoo 35 973.4545 7,836 2 Trevor Harbolt 1030.0000 9.6566 956
1 Round 1 Rating @ Wickes 2023-03-04 C Saginaw 6 949.0000 135 1 Brett Federspiel 990.0000 1.1000 55
1 Round 1 Rating @ Wickes 2023-03-04 C Saginaw 6 949.0000 135 1 PDGA #94913 990.0000 1.1000 55
Kent Lake Classic - MPO & MA1 2023-02-26 C Milford 33 964.5156 3,898 2 Nicholas Gill 1028.5000 4.4757 461
Showboat Frozen Classic 2023-02-19 C Chesaning 15 953.0000 1,840 2 PDGA #94913 1005.0000 3.0808 305
The dow bubble open 2023-02-18 C Midland 4 947.7500 460 2 PDGA #94913 984.0000 1.4423 150
GRDoD Winter Games 2023 2023-02-18 C Byron Center 5 954.5000 0 2 Derek Ballou 1011.0000 0.0000 0
Lake Arvesta Presents: Freeze Your Face Off 2023-02-18 C South Haven 4 952.0000 152 1 PDGA #123212 970.0000 1.1875 95
Disc Golf Fanatic Pre-Superbowl Tourney 2023-02-12 C Ypsilanti 5 934.1000 640 2 PDGA #160269 984.0000 1.7544 200
2022 Huron Valley Saturday Singles 2023-02-11 L Milford 13 956.7895 0 7 Corey Selig 995.5000 0
Lake Arvesta Presents: Ice Breaker Open 2023-02-04 C South Haven 1 968.0000 60 1 PDGA #11741 968.0000 0.7692 60
Willow Wonderland 2023-01-28 C New Boston 1 989.0000 152 2 Brendan Taylor 989.0000 0.6667 76
1 Round 1 Rating @ Freeland 2023-01-28 C Freeland 8 957.8750 185 1 Ryan Anderson 1002.0000 1.6304 75
2023 Ice Burrrg Open 2023-01-21 C Lansing 8 944.7500 1,170 2 PDGA #82496 984.0000 2.1121 245
14th Annual Frigid Doe Ice Bowl (CEP Charity - Rated) 2023-01-14 XC Mount Pleasant 18 956.1714 1,270 2 Luke Taylor 1017.0000 1.6667 150
Cassius Benton 2022-12-31 C Northville 2 955.0000 252 2 Austin Cook 967.0000 1.1351 126
Bye Bye 2022 @ Wickes 2022-12-31 C Saginaw 13 928.2308 1,230 2 Cody Sears 991.0000 2.5000 235
Last Chance For Points 2022-12-18 C Milford 2 973.7500 250 2 Austen Bates 1001.0000 1.1792 125
Spindler Sanctioined Singles 2022-2023 2022-12-18 L Eastpointe 8 921.3548 0 8 Brendan Livingston 939.7500 0
Branch Managers Fall League 2022-12-10 L Battle Creek, MI 4 952.5000 0 5 PDGA #154877 948.2500 0
Branch Managers Fall League 2022-12-10 L Battle Creek, MI 4 952.5000 0 5 PDGA #154878 947.6667 0
Holiday Hyzer 2022-12-04 C New Boston 2 937.2500 0 2 Derek Ballou 948.0000 0.0000 0
StoneCo Fall Session (PRO/AM) 2022-11-27 L Ottawa Lake 13 926.1500 0 4 Derek Ballou 954.3333 0
3 Birdies in a Row 2022-11-26 C Milford 15 959.7500 1,742 2 Corey Selig 986.5000 2.8302 300
1 Round 1 Rating Flex @ Hayes Park 2022-11-25 C Freeland 7 947.0000 160 1 Brett Federspiel 1014.0000 1.7778 80
Kick Out The Yams 2022-11-19 C Lansing 4 934.5714 580 2 Dan Treece 991.0000 1.7961 185
2022 Fall - Pug Life Saturday Sanctioned Mornings 2022-11-19 L Milford 6 936.1111 0 6 Derek Ballou 967.5000 0
2022 Fall - Pug Life Saturday Sanctioned Afternoons 2022-11-19 L Milford 9 941.3000 0 6 Derek Ballou 960.8333 0
Lake Arvesta November Open 2022-11-19 C South Haven 8 932.5000 240 1 PDGA #98798 969.0000 1.6197 115
Wayne County Open 2022-11-13 C Northville 8 930.7500 948 2 Adam McPherson 1007.5000 2.2500 234
Wheels up @ The Runway! 2022-11-12 C Alma 9 946.5000 1,220 2 Nick Robertson 979.5000 2.1795 255
Arsenal of Democracy Championship 2022-11-05 C Detroit 6 952.1667 600 2 Corey Selig 997.5000 1.4356 145
The Zamboni Open presented by Discraft 2022-11-05 C West Olive 4 969.1250 584 2 Justin Larson 990.5000 1.8300 183
My Boy Chris Flex Start #4 2022-11-05 C Saginaw 7 936.8571 195 1 PDGA #94913 999.0000 1.7925 95
Michigan Pro State Championships - Presented by Discraft 2022-10-30 B Byron Center 34 975.1100 11,070 3 Andrew Marwede 1045.0000 5.6149 831
Big Dawg presented by Great Lakes Disc 2022-10-29 C Big Rapids 3 982.1667 388 2 PDGA #88215 1006.5000 1.1748 121
Vienna Singles - Fall Session (PRO/AM) 2022-10-25 L Temperance 29 929.2348 0 10 PDGA #34178 968.0000 0
Parm Sanctioned Singles 2022-10-24 L Lambertville 8 932.0000 0 5 PDGA #34178 979.6000 0
Stony Creek Open - Pro 2022-10-23 B Shelby Township 31 964.5484 7,206 2 Andrew Martin 1013.0000 8.4646 838
Discraft Presents The Samuel Garfield Cup 2022-10-22 C Grand Rapids 4 973.3750 586 2 Robert Centala 1008.0000 2.1786 183
Ichabod Crane Open 2022-10-22 C Laingsburg 10 941.5500 1,060 2 Jared Stoll 989.5000 1.9469 220
Fall Sanctioned League @ Brewer Park 2022-10-22 L Byron Center 8 934.5385 0 4 Mike Dabkowski 941.0000 0
Fall Sanctioned League @ Brewer Park (Reds) 2022-10-22 L Byron Center 5 943.1111 0 5 Scott Scholten 952.8000 0
Sunrise Side Open presented by Wolverine State Credit Union 2022-10-16 B Alpen 8 998.8125 2,282 2 Andrew Marwede 1064.0000 6.6341 544
Ghouls and Ghosts 2022-10-16 C Saginaw 6 909.2500 470 2 Ryan Anderson 949.5000 1.4602 165
Haunting at the Hills 2022-10-15 C Ypsilanti 7 947.8333 812 2 Corey Selig 986.0000 1.9400 194
The Goldenrod Championship 2022-10-15 C Davison 4 947.5000 530 2 PDGA #52438 980.0000 1.5741 170
Party at the Ponds 2022-10-09 C Ypsialnti 6 953.1818 770 2 PDGA #116463 984.0000 1.6514 180
Michigan State Doubles Championship - Pro & Am Mixed 2022-10-09 XB Holt 3 1,350 2 Kira Damusis 2.8571 300
Michigan State Doubles Championship - Pro & Am Mixed 2022-10-09 XB Holt 3 1,350 2 Nate Wegryn 2.8571 300
DiscOver Columbus 2022-10-09 C Columbus 11 953.4545 940 2 Jared Stoll 989.0000 1.4844 190
Michigan State Doubles Championship - MPO, FPO, MA1, Am Women 2022-10-08 XB Holt 1 540 2 Trevor Harbolt 2.8421 270
GRDoD Fall Color Classic 2022 2022-10-08 C Haistings 11 952.9091 1,768 2 Willie Prince 993.0000 3.1553 325
2022 Wilddeer Open (CEP Charity - Rated) 2022-10-08 XC Mount Pleasant 10 967.2500 840 2 Cody Sears 995.0000 1.6667 170
Discraft's Oakland County Championship 2022-10-02 A Milford 54 971.3250 27,915 3 Luke Taylor 1030.3333 9.8129 1,521
Rocky River Rumble 5 2022-10-01 C Three Rivers 12 948.3333 1,156 2 Ian Hamilton 990.0000 2.2243 238
1 Round 1 Rating Flex @ The Runway 2022-10-01 C Alma 4 936.2500 92 1 PDGA #77862 983.0000 0.8364 46
Northern Michigan Championship 2022-09-25 B Traverse City 15 990.3778 5,559 3 Luke Taylor 1021.3333 4.3310 615
The Washtenaw County Open 2022-09-25 C Ypsilanti 10 939.5500 1,160 2 Corey Selig 1012.0000 2.3564 238
The Motown Classic 2022-09-24 C Detroit 9 935.6111 900 2 PDGA #95576 983.5000 1.9072 185
Wild Wild Wickes present by Above Par Disc Golf 2022-09-24 C Saginaw 8 942.9375 1,358 2 Cody Sears 1002.5000 3.0612 300
2022 Pug Life Disc Golf Friday Sanctioned Singles pt3 2022-09-23 L Farmington Hills 14 944.7308 0 6 Derek Ballou 962.2000 0
Hanson Hills Singles League Presented by AloftDG.com 2022-09-22 L Grayling 9 924.0769 0 9 PDGA #67337 977.5000 0
Northridge Fall Sanctioned Singles Longs 2022-09-22 L Plymouth 20 938.7846 0 7 PDGA #70817 965.1429 0
Hudson Mills Summer Sling 2022-09-18 C Dexter 8 936.6667 992 2 Sam Smigiel 994.5000 2.0000 200
Whiteford Sanctioned Singles Summer/Fall 2022-09-18 L Ottawa Lake 19 928.8750 0 9 PDGA #76816 963.2857 0
Tough-Man Challenge 2022-09-17 C Hastings 7 961.5385 672 2 PDGA #77862 983.0000 1.4679 160
My Boy Chris Flex Start #3 2022-09-17 C sanford 7 948.2857 160 1 Ryan Anderson 1004.0000 1.6000 80
1 Round 1 Rating @ Showboat Park Pt 2 2022-09-14 C Chesaning 8 961.7500 106 1 Mitchell Kloc 1043.0000 1.8537 76
Huron Valley Summer Singles 2022-09-13 L New Hudson 18 945.8684 0 6 Derek Ballou 980.7500 0
Burchfield Open 2022-09-10 C Holt 20 961.6250 2,918 2 Nicholas Gill 1007.0000 3.9709 409
Paradise City Open 2022-09-09 B Kingsley 6 955.1667 1,260 2 Nick Robertson 1013.5000 3.2609 300
1 Round 1 Rating @ Burt Pt 2 2022-09-07 C Burt 3 963.6667 69 1 PDGA #94913 1010.0000 0.9773 43
This Little Piggy Stayed Home 2022-09-05 C Plymouth 15 957.5000 1,840 2 Austen Bates 1019.0000 3.1313 310
Traverse Area Singles presented by Cheboygan Brewing Co. 2022-08-30 L Traverse City 20 951.4194 0 6 Cameron Benak 972.8333 0
Disco Monday Nights 2022 2022-08-29 L Lambertville 14 911.4186 0 10 PDGA #34178 943.5000 0
Above Par Open 2022-08-28 B Otisville 14 958.4762 7,773 3 Robert Centala 1007.0000 6.2500 1,000
Chasing Birdies at Burchfield sponsored by Great Lakes Disc 2022-08-27 C Holt 6 922.6667 610 2 PDGA #144147 978.5000 1.7699 200
Holly Folly 2022-08-27 C Holly 7 926.0000 672 2 Ziggy Bierekoven 992.5000 1.7778 160
Bear’s Den Flex Start 2022-08-27 C Kingsley 3 960.0000 84 1 PDGA #64173 998.0000 1.0600 53
The Hyzernaut Open - MPO, MP40, MA2, MA4 2022-08-27 C Jackson 15 943.1667 1,658 2 Josh Taylor 998.0000 2.9149 274
Friday Flexy @ Far Hill 2022-08-26 C Sparta 13 940.3077 320 1 Sam Smigiel 998.0000 3.6667 132
Winny Wednesday 2 2022-08-24 L Holland 2 944.4286 0 10 PDGA #69241 945.2000 0
Massasauga Open - Driven by Innova (MPO,MA2,FA2) 2022-08-21 B Dexter 15 962.9333 3,270 2 Nate Wegryn 1012.5000 6.0606 600
Happy Discing Open - Pros, MA2, MA4 2022-08-20 C Kingsley 1 987.0000 0 2 Nick Robertson 987.0000 0.0000 0
Shore Acres Open - MPO, FPO+, MP50+, MA2, MA40, MA4 2022-08-20 B Saugatuck 23 951.7174 5,660 2 Nicholas Gill 1023.5000 8.1720 760
Camp Smash Flex 2022-08-19 C Belding 12 931.8333 336 1 Bradley Levendosky Jr 990.0000 2.4694 121
Friday Flexy @ Brewer 2022-08-19 C Byron Center 19 924.4211 425 1 Nicholas Gill 1026.0000 3.0612 150
GRDGU Summer Sanctioned League (Reds) 2022-08-18 L Byron Center 20 897.6579 0 10 Scott Scholten 958.1250 0
GRDGU Summer Sanctioned League (Golds) 2022-08-18 L Byron Center 18 933.9429 0 10 PDGA #122809 934.4286 0
1 Round 1 Rating @ Hunts Hideaway Pt3 2022-08-17 C Otisville 10 924.0000 140 1 Cody Sears 976.0000 1.4912 85
Vienna Singles - Summer Series (PRO) 2022-08-16 L Temperance 33 919.9485 0 10 PDGA #76816 952.7000 0
Shore Acres 2022 League Second Session 2022-08-16 L Holland 6 929.0000 0 9 PDGA #2743 949.1667 0
Grand Traverse Championship presented by Cheboygan Brewing Co. 2022-08-14 B Traverse City 7 977.5714 4,014 3 Jared Stoll 996.6667 3.7633 636
Discbaron Series: Mount Pleasant Open Sponsored By Discraft - ALL PRO MA50 MA2 MA4 JUNIORS 2022-08-14 B Mount Pleasant 23 957.5000 3,850 2 Luke Taylor 1039.5000 5.4348 500
The Kellie Jo Memorial 2022-08-14 C Whitmore Lake 13 941.5769 1,448 2 Corey Selig 1011.5000 2.2130 239
Motor City Open 2022-08-13 C Leonard 8 950.1875 1,830 2 Ziggy Bierekoven 995.5000 4.0909 450
Friday Flexy @ Jaycee 2022-08-12 C Kentwood 3 936.0000 84 1 PDGA #94521 950.0000 1.1522 53
1 Round 1 Rating @ Wickes Pt3 2022-08-10 C Saginaw 5 968.8000 72 1 Mitchell Kloc 1006.0000 1.5000 72
Discraft 2022 CCR Open Fueled By Great Lakes Disc 2022-08-07 A Holt 78 975.8261 69,375 3 Scott Conway 1034.6667 16.7296 2,660
Throw Down The Dam 2022-08-06 C Newaygo 9 917.7222 1,334 2 PDGA #69426 968.5000 2.8247 274
My Boy Chris Flex Start #2 2022-08-06 C Freeland 6 977.3333 108 1 Ryan Anderson 1019.0000 0.9630 52
2022 Disc Baron Series: Farm Classic presented by Discraft - All Pro, MA2, MA4 2022-08-06 C Shelby 9 963.3333 1,690 2 PDGA #118358 997.5000 3.6146 347
2022 Pug Life Disc Golf Friday Sanctioned Singles pt2 2022-08-05 L Milford 11 961.1923 0 9 Matt Clark 982.1667 0
Friday Flexy @ Johnson 2022-08-05 C Grand Rapids 5 944.2000 140 1 PDGA #111786 991.0000 1.9556 88
2022 Northridge Summer Longs 2022-08-04 L Plymouth 30 932.4167 0 8 Derek Ballou 982.5000 0
DGPT - Discraft's Great Lakes Open 2022-07-31 DGPT Milford 116 1008.7849 173,982 3 Calvin Heimburg 1056.3333 35.9281 6,000
1 Round 1 Rating @ McCurdy 2022-07-27 C Corunna 3 958.6667 60 1 Mitchell Kloc 988.0000 0.8696 40
Huron Valley Solstice Singles 2022-07-26 L Milford 25 955.6393 0 10 Matt Clark 976.8571 0
Vehicle City Open presented by Discraft - MPO, MA2, MA4, MA40, MA60, All Women 2022-07-24 B Flint 10 967.6500 0 2 Luke Taylor 1035.0000 0.0000 0
Battle of the Bend 2022-07-24 C Shelby Township 6 930.3333 300 1 Michael McGinnis 956.0000 1.5190 120
Battle of the Bend 2022-07-24 C Shelby Township 6 930.3333 300 1 PDGA #143946 956.0000 1.5190 120
Black Falcon Innova Open 2022-07-23 C Kent City 9 938.4444 878 2 Bradley Levendosky Jr 977.0000 2.0242 251
Hanson Hills Singles League Presented by AloftDG.com 2022-07-21 L Grayling 14 914.1395 0 10 PDGA #67337 957.6000 0
1 Round 1 Rating @ Burt 2022-07-20 C Burt 6 947.6667 130 1 Mitchell Kloc 1030.0000 1.5476 65
Traverse Area Singles presented by Cheboygan Brewing Co. 2022-07-19 L Traverse City 19 946.1429 0 6 Cameron Benak 982.4000 0
River City Open presented by Discraft - Pro 2022-07-17 A Byron Center 116 968.7442 77,643 3 Aaron Gossage 1051.6667 18.0552 2,618
Showboat Classic, The Sequel Powered by Breaking Aces 2022-07-16 C Chesaning 4 948.6250 470 2 Josh Taylor 977.5000 2.5269 235
1 Round 1 Rating @ Hunts Hideaway Pt2 2022-07-15 C Otisville 2 958.5000 42 1 PDGA #47234 977.0000 0.7368 42
2022 Disc Baron Series: West Shore Showdown 2022-07-10 C Scottville 7 954.7143 970 2 Woody Hass 990.0000 2.2427 231
Renaissance City Open 2022-07-10 C Detroit 6 939.3333 600 2 Ziggy Bierekoven 1004.0000 1.5426 145
Sanctioned Singles at Stoneco 2022-07-10